sensor_id;sensor_type;location;lat;lon;timestamp;P1;durP1;ratioP1;P2;durP2;ratioP2
30303;SDS011;17112;48.636;10.152;2024-01-10T00:01:39;35.45;;;15.57;;
30303;SDS011;17112;48.636;10.152;2024-01-10T00:04:05;30.17;;;14.68;;
30303;SDS011;17112;48.636;10.152;2024-01-10T00:06:30;30.60;;;14.82;;
30303;SDS011;17112;48.636;10.152;2024-01-10T00:08:56;35.10;;;15.40;;
30303;SDS011;17112;48.636;10.152;2024-01-10T00:11:22;29.25;;;14.43;;
30303;SDS011;17112;48.636;10.152;2024-01-10T00:13:47;37.67;;;14.23;;
30303;SDS011;17112;48.636;10.152;2024-01-10T00:16:13;34.53;;;14.95;;
30303;SDS011;17112;48.636;10.152;2024-01-10T00:18:39;37.28;;;14.20;;
30303;SDS011;17112;48.636;10.152;2024-01-10T00:21:06;30.67;;;14.82;;
30303;SDS011;17112;48.636;10.152;2024-01-10T00:23:33;34.90;;;14.70;;
30303;SDS011;17112;48.636;10.152;2024-01-10T00:25:59;33.63;;;15.65;;
30303;SDS011;17112;48.636;10.152;2024-01-10T00:28:25;35.85;;;15.27;;
30303;SDS011;17112;48.636;10.152;2024-01-10T00:30:51;31.05;;;14.65;;
30303;SDS011;17112;48.636;10.152;2024-01-10T00:33:17;30.65;;;14.77;;
30303;SDS011;17112;48.636;10.152;2024-01-10T00:35:43;32.15;;;15.30;;
30303;SDS011;17112;48.636;10.152;2024-01-10T00:38:08;29.45;;;14.20;;
30303;SDS011;17112;48.636;10.152;2024-01-10T00:40:34;30.15;;;14.20;;
30303;SDS011;17112;48.636;10.152;2024-01-10T00:43:00;33.33;;;14.23;;
30303;SDS011;17112;48.636;10.152;2024-01-10T00:45:26;27.42;;;12.93;;
30303;SDS011;17112;48.636;10.152;2024-01-10T00:47:52;26.55;;;13.60;;
30303;SDS011;17112;48.636;10.152;2024-01-10T00:50:18;29.77;;;13.68;;
30303;SDS011;17112;48.636;10.152;2024-01-10T00:52:44;27.90;;;12.65;;
30303;SDS011;17112;48.636;10.152;2024-01-10T00:55:10;33.33;;;14.07;;
30303;SDS011;17112;48.636;10.152;2024-01-10T00:57:36;33.10;;;13.48;;
30303;SDS011;17112;48.636;10.152;2024-01-10T01:00:04;29.60;;;14.07;;
30303;SDS011;17112;48.636;10.152;2024-01-10T01:02:33;31.67;;;14.32;;
30303;SDS011;17112;48.636;10.152;2024-01-10T01:04:58;30.10;;;14.02;;
30303;SDS011;17112;48.636;10.152;2024-01-10T01:07:25;32.65;;;13.48;;
30303;SDS011;17112;48.636;10.152;2024-01-10T01:09:51;26.75;;;12.75;;
30303;SDS011;17112;48.636;10.152;2024-01-10T01:12:17;28.58;;;13.43;;
30303;SDS011;17112;48.636;10.152;2024-01-10T01:14:43;29.02;;;13.25;;
30303;SDS011;17112;48.636;10.152;2024-01-10T01:17:08;27.45;;;12.95;;
30303;SDS011;17112;48.636;10.152;2024-01-10T01:19:34;31.92;;;13.70;;
30303;SDS011;17112;48.636;10.152;2024-01-10T01:22:00;25.40;;;13.10;;
30303;SDS011;17112;48.636;10.152;2024-01-10T01:24:26;26.00;;;13.68;;
30303;SDS011;17112;48.636;10.152;2024-01-10T01:26:51;26.58;;;13.43;;
30303;SDS011;17112;48.636;10.152;2024-01-10T01:29:17;25.98;;;12.82;;
30303;SDS011;17112;48.636;10.152;2024-01-10T01:31:43;26.40;;;13.18;;
30303;SDS011;17112;48.636;10.152;2024-01-10T01:34:09;26.45;;;12.13;;
30303;SDS011;17112;48.636;10.152;2024-01-10T01:36:35;32.47;;;13.88;;
30303;SDS011;17112;48.636;10.152;2024-01-10T01:39:00;24.67;;;13.30;;
30303;SDS011;17112;48.636;10.152;2024-01-10T01:41:26;30.42;;;12.48;;
30303;SDS011;17112;48.636;10.152;2024-01-10T01:43:52;26.83;;;12.77;;
30303;SDS011;17112;48.636;10.152;2024-01-10T01:46:17;26.40;;;11.80;;
30303;SDS011;17112;48.636;10.152;2024-01-10T01:48:43;28.77;;;12.02;;
30303;SDS011;17112;48.636;10.152;2024-01-10T01:51:10;27.05;;;11.65;;
30303;SDS011;17112;48.636;10.152;2024-01-10T01:53:39;33.38;;;11.20;;
30303;SDS011;17112;48.636;10.152;2024-01-10T01:56:07;24.23;;;11.73;;
30303;SDS011;17112;48.636;10.152;2024-01-10T01:58:34;21.95;;;11.07;;
30303;SDS011;17112;48.636;10.152;2024-01-10T02:01:04;28.75;;;11.90;;
30303;SDS011;17112;48.636;10.152;2024-01-10T02:03:30;24.25;;;10.98;;
30303;SDS011;17112;48.636;10.152;2024-01-10T02:05:57;24.80;;;11.75;;
30303;SDS011;17112;48.636;10.152;2024-01-10T02:08:24;24.20;;;11.88;;
30303;SDS011;17112;48.636;10.152;2024-01-10T02:10:49;25.35;;;11.23;;
30303;SDS011;17112;48.636;10.152;2024-01-10T02:13:15;24.27;;;12.25;;
30303;SDS011;17112;48.636;10.152;2024-01-10T02:15:41;25.63;;;11.52;;
30303;SDS011;17112;48.636;10.152;2024-01-10T02:18:08;22.58;;;9.88;;
30303;SDS011;17112;48.636;10.152;2024-01-10T02:20:37;24.27;;;11.35;;
30303;SDS011;17112;48.636;10.152;2024-01-10T02:23:03;23.08;;;11.60;;
30303;SDS011;17112;48.636;10.152;2024-01-10T02:25:29;26.35;;;11.70;;
30303;SDS011;17112;48.636;10.152;2024-01-10T02:27:54;24.05;;;11.55;;
30303;SDS011;17112;48.636;10.152;2024-01-10T02:30:20;25.40;;;12.10;;
30303;SDS011;17112;48.636;10.152;2024-01-10T02:32:46;23.10;;;11.73;;
30303;SDS011;17112;48.636;10.152;2024-01-10T02:35:11;24.67;;;11.73;;
30303;SDS011;17112;48.636;10.152;2024-01-10T02:37:37;24.52;;;10.95;;
30303;SDS011;17112;48.636;10.152;2024-01-10T02:40:03;22.00;;;11.05;;
30303;SDS011;17112;48.636;10.152;2024-01-10T02:42:29;24.55;;;10.77;;
30303;SDS011;17112;48.636;10.152;2024-01-10T02:44:56;26.02;;;10.88;;
30303;SDS011;17112;48.636;10.152;2024-01-10T02:47:21;25.58;;;10.63;;
30303;SDS011;17112;48.636;10.152;2024-01-10T02:49:47;24.27;;;10.90;;
30303;SDS011;17112;48.636;10.152;2024-01-10T02:52:13;27.42;;;10.38;;
30303;SDS011;17112;48.636;10.152;2024-01-10T02:54:38;22.65;;;10.98;;
30303;SDS011;17112;48.636;10.152;2024-01-10T02:57:04;26.55;;;11.73;;
30303;SDS011;17112;48.636;10.152;2024-01-10T02:59:30;27.65;;;11.30;;
30303;SDS011;17112;48.636;10.152;2024-01-10T03:01:55;22.52;;;10.38;;
30303;SDS011;17112;48.636;10.152;2024-01-10T03:04:21;24.17;;;11.65;;
30303;SDS011;17112;48.636;10.152;2024-01-10T03:06:46;23.88;;;9.95;;
30303;SDS011;17112;48.636;10.152;2024-01-10T03:09:12;24.55;;;11.00;;
30303;SDS011;17112;48.636;10.152;2024-01-10T03:11:38;21.58;;;11.20;;
30303;SDS011;17112;48.636;10.152;2024-01-10T03:14:04;20.52;;;10.60;;
30303;SDS011;17112;48.636;10.152;2024-01-10T03:16:34;20.48;;;10.52;;
30303;SDS011;17112;48.636;10.152;2024-01-10T03:18:59;22.52;;;10.52;;
30303;SDS011;17112;48.636;10.152;2024-01-10T03:21:25;22.45;;;11.27;;
30303;SDS011;17112;48.636;10.152;2024-01-10T03:23:58;26.00;;;10.68;;
30303;SDS011;17112;48.636;10.152;2024-01-10T03:26:25;22.40;;;10.30;;
30303;SDS011;17112;48.636;10.152;2024-01-10T03:28:51;23.58;;;10.90;;
30303;SDS011;17112;48.636;10.152;2024-01-10T03:31:17;24.38;;;11.40;;
30303;SDS011;17112;48.636;10.152;2024-01-10T03:33:43;20.67;;;10.48;;
30303;SDS011;17112;48.636;10.152;2024-01-10T03:36:11;21.33;;;10.63;;
30303;SDS011;17112;48.636;10.152;2024-01-10T03:38:39;20.15;;;10.57;;
30303;SDS011;17112;48.636;10.152;2024-01-10T03:41:04;25.63;;;11.00;;
30303;SDS011;17112;48.636;10.152;2024-01-10T03:43:30;22.17;;;10.77;;
30303;SDS011;17112;48.636;10.152;2024-01-10T03:45:59;28.05;;;11.50;;
30303;SDS011;17112;48.636;10.152;2024-01-10T03:48:24;23.42;;;11.73;;
30303;SDS011;17112;48.636;10.152;2024-01-10T03:50:50;22.40;;;11.10;;
30303;SDS011;17112;48.636;10.152;2024-01-10T03:53:16;22.88;;;11.73;;
30303;SDS011;17112;48.636;10.152;2024-01-10T03:55:41;23.40;;;11.95;;
30303;SDS011;17112;48.636;10.152;2024-01-10T03:58:07;23.20;;;11.48;;
30303;SDS011;17112;48.636;10.152;2024-01-10T04:00:33;23.67;;;11.73;;
30303;SDS011;17112;48.636;10.152;2024-01-10T04:02:58;25.60;;;11.93;;
30303;SDS011;17112;48.636;10.152;2024-01-10T04:05:24;30.27;;;12.32;;
30303;SDS011;17112;48.636;10.152;2024-01-10T04:07:50;27.42;;;12.95;;
30303;SDS011;17112;48.636;10.152;2024-01-10T04:10:17;26.95;;;12.30;;
30303;SDS011;17112;48.636;10.152;2024-01-10T04:12:43;26.33;;;12.25;;
30303;SDS011;17112;48.636;10.152;2024-01-10T04:15:09;32.85;;;13.27;;
30303;SDS011;17112;48.636;10.152;2024-01-10T04:17:36;28.13;;;12.95;;
30303;SDS011;17112;48.636;10.152;2024-01-10T04:20:02;30.27;;;12.73;;
30303;SDS011;17112;48.636;10.152;2024-01-10T04:22:28;25.55;;;11.57;;
30303;SDS011;17112;48.636;10.152;2024-01-10T04:24:55;29.65;;;12.40;;
30303;SDS011;17112;48.636;10.152;2024-01-10T04:27:24;30.15;;;12.50;;
30303;SDS011;17112;48.636;10.152;2024-01-10T04:29:50;28.83;;;12.88;;
30303;SDS011;17112;48.636;10.152;2024-01-10T04:32:16;23.67;;;11.73;;
30303;SDS011;17112;48.636;10.152;2024-01-10T04:34:42;28.45;;;11.77;;
30303;SDS011;17112;48.636;10.152;2024-01-10T04:37:07;25.33;;;11.75;;
30303;SDS011;17112;48.636;10.152;2024-01-10T04:39:33;23.27;;;11.75;;
30303;SDS011;17112;48.636;10.152;2024-01-10T04:42:00;30.58;;;12.75;;
30303;SDS011;17112;48.636;10.152;2024-01-10T04:44:26;28.80;;;12.65;;
30303;SDS011;17112;48.636;10.152;2024-01-10T04:46:51;30.00;;;12.45;;
30303;SDS011;17112;48.636;10.152;2024-01-10T04:49:17;23.98;;;12.00;;
30303;SDS011;17112;48.636;10.152;2024-01-10T04:51:43;25.98;;;12.88;;
30303;SDS011;17112;48.636;10.152;2024-01-10T04:54:08;26.95;;;12.63;;
30303;SDS011;17112;48.636;10.152;2024-01-10T04:56:34;30.58;;;12.93;;
30303;SDS011;17112;48.636;10.152;2024-01-10T04:59:04;25.95;;;12.00;;
30303;SDS011;17112;48.636;10.152;2024-01-10T05:01:30;27.65;;;12.32;;
30303;SDS011;17112;48.636;10.152;2024-01-10T05:03:56;25.30;;;12.05;;
30303;SDS011;17112;48.636;10.152;2024-01-10T05:06:22;30.65;;;13.95;;
30303;SDS011;17112;48.636;10.152;2024-01-10T05:08:47;26.00;;;12.52;;
30303;SDS011;17112;48.636;10.152;2024-01-10T05:11:13;28.58;;;12.98;;
30303;SDS011;17112;48.636;10.152;2024-01-10T05:13:40;29.58;;;12.93;;
30303;SDS011;17112;48.636;10.152;2024-01-10T05:16:05;26.15;;;12.50;;
30303;SDS011;17112;48.636;10.152;2024-01-10T05:18:31;26.27;;;12.98;;
30303;SDS011;17112;48.636;10.152;2024-01-10T05:20:57;30.65;;;13.32;;
30303;SDS011;17112;48.636;10.152;2024-01-10T05:23:23;26.55;;;12.73;;
30303;SDS011;17112;48.636;10.152;2024-01-10T05:25:49;31.23;;;13.32;;
30303;SDS011;17112;48.636;10.152;2024-01-10T05:28:15;27.85;;;12.60;;
30303;SDS011;17112;48.636;10.152;2024-01-10T05:30:41;30.30;;;13.15;;
30303;SDS011;17112;48.636;10.152;2024-01-10T05:33:08;26.65;;;12.73;;
30303;SDS011;17112;48.636;10.152;2024-01-10T05:35:34;27.75;;;12.73;;
30303;SDS011;17112;48.636;10.152;2024-01-10T05:38:01;30.35;;;13.27;;
30303;SDS011;17112;48.636;10.152;2024-01-10T05:40:28;25.05;;;13.43;;
30303;SDS011;17112;48.636;10.152;2024-01-10T05:42:55;27.95;;;12.90;;
30303;SDS011;17112;48.636;10.152;2024-01-10T05:45:21;29.40;;;12.90;;
30303;SDS011;17112;48.636;10.152;2024-01-10T05:47:46;26.27;;;12.65;;
30303;SDS011;17112;48.636;10.152;2024-01-10T05:50:13;26.23;;;14.15;;
30303;SDS011;17112;48.636;10.152;2024-01-10T05:52:39;37.97;;;14.93;;
30303;SDS011;17112;48.636;10.152;2024-01-10T05:55:05;32.95;;;14.30;;
30303;SDS011;17112;48.636;10.152;2024-01-10T05:57:33;32.00;;;13.75;;
30303;SDS011;17112;48.636;10.152;2024-01-10T05:59:59;28.63;;;13.18;;
30303;SDS011;17112;48.636;10.152;2024-01-10T06:02:25;32.15;;;14.18;;
30303;SDS011;17112;48.636;10.152;2024-01-10T06:04:52;30.90;;;14.55;;
30303;SDS011;17112;48.636;10.152;2024-01-10T06:07:18;30.00;;;14.45;;
30303;SDS011;17112;48.636;10.152;2024-01-10T06:09:45;28.90;;;13.38;;
30303;SDS011;17112;48.636;10.152;2024-01-10T06:12:12;29.50;;;14.18;;
30303;SDS011;17112;48.636;10.152;2024-01-10T06:14:38;31.92;;;13.82;;
30303;SDS011;17112;48.636;10.152;2024-01-10T06:17:04;33.28;;;14.35;;
30303;SDS011;17112;48.636;10.152;2024-01-10T06:19:30;29.58;;;14.43;;
30303;SDS011;17112;48.636;10.152;2024-01-10T06:21:58;28.88;;;13.80;;
30303;SDS011;17112;48.636;10.152;2024-01-10T06:24:24;28.92;;;14.15;;
30303;SDS011;17112;48.636;10.152;2024-01-10T06:26:50;28.52;;;14.50;;
30303;SDS011;17112;48.636;10.152;2024-01-10T06:29:16;26.50;;;14.05;;
30303;SDS011;17112;48.636;10.152;2024-01-10T06:31:42;30.92;;;15.02;;
30303;SDS011;17112;48.636;10.152;2024-01-10T06:34:07;29.70;;;14.02;;
30303;SDS011;17112;48.636;10.152;2024-01-10T06:36:34;31.33;;;14.52;;
30303;SDS011;17112;48.636;10.152;2024-01-10T06:39:00;30.40;;;14.77;;
30303;SDS011;17112;48.636;10.152;2024-01-10T06:41:26;33.53;;;14.60;;
30303;SDS011;17112;48.636;10.152;2024-01-10T06:43:52;31.10;;;15.30;;
30303;SDS011;17112;48.636;10.152;2024-01-10T06:46:18;31.38;;;14.52;;
30303;SDS011;17112;48.636;10.152;2024-01-10T06:48:44;33.92;;;14.07;;
30303;SDS011;17112;48.636;10.152;2024-01-10T06:51:12;27.95;;;13.98;;
30303;SDS011;17112;48.636;10.152;2024-01-10T06:53:37;29.10;;;13.73;;
30303;SDS011;17112;48.636;10.152;2024-01-10T06:56:03;28.67;;;14.40;;
30303;SDS011;17112;48.636;10.152;2024-01-10T06:58:30;28.95;;;13.68;;
30303;SDS011;17112;48.636;10.152;2024-01-10T07:00:56;32.47;;;14.82;;
30303;SDS011;17112;48.636;10.152;2024-01-10T07:03:21;28.02;;;14.10;;
30303;SDS011;17112;48.636;10.152;2024-01-10T07:05:47;29.13;;;13.43;;
30303;SDS011;17112;48.636;10.152;2024-01-10T07:08:14;33.42;;;14.75;;
30303;SDS011;17112;48.636;10.152;2024-01-10T07:10:39;35.90;;;14.57;;
30303;SDS011;17112;48.636;10.152;2024-01-10T07:13:05;33.13;;;14.60;;
30303;SDS011;17112;48.636;10.152;2024-01-10T07:15:31;34.50;;;17.45;;
30303;SDS011;17112;48.636;10.152;2024-01-10T07:17:57;39.65;;;17.58;;
30303;SDS011;17112;48.636;10.152;2024-01-10T07:20:23;53.22;;;21.33;;
30303;SDS011;17112;48.636;10.152;2024-01-10T07:22:49;74.78;;;34.38;;
30303;SDS011;17112;48.636;10.152;2024-01-10T07:25:16;44.40;;;21.85;;
30303;SDS011;17112;48.636;10.152;2024-01-10T07:27:42;42.13;;;19.45;;
30303;SDS011;17112;48.636;10.152;2024-01-10T07:30:09;113.95;;;44.42;;
30303;SDS011;17112;48.636;10.152;2024-01-10T07:32:44;55.97;;;24.95;;
30303;SDS011;17112;48.636;10.152;2024-01-10T07:35:11;85.68;;;36.15;;
30303;SDS011;17112;48.636;10.152;2024-01-10T07:37:38;42.63;;;19.33;;
30303;SDS011;17112;48.636;10.152;2024-01-10T07:40:08;37.40;;;18.65;;
30303;SDS011;17112;48.636;10.152;2024-01-10T07:42:36;39.00;;;16.75;;
30303;SDS011;17112;48.636;10.152;2024-01-10T07:45:02;35.50;;;17.02;;
30303;SDS011;17112;48.636;10.152;2024-01-10T07:47:32;43.92;;;17.65;;
30303;SDS011;17112;48.636;10.152;2024-01-10T07:50:05;35.23;;;17.30;;
30303;SDS011;17112;48.636;10.152;2024-01-10T07:52:36;44.50;;;18.63;;
30303;SDS011;17112;48.636;10.152;2024-01-10T07:55:01;40.30;;;18.60;;
30303;SDS011;17112;48.636;10.152;2024-01-10T07:57:31;40.15;;;17.30;;
30303;SDS011;17112;48.636;10.152;2024-01-10T08:00:01;39.00;;;17.08;;
30303;SDS011;17112;48.636;10.152;2024-01-10T08:02:29;43.90;;;18.92;;
30303;SDS011;17112;48.636;10.152;2024-01-10T08:04:59;35.20;;;17.27;;
30303;SDS011;17112;48.636;10.152;2024-01-10T08:07:25;35.05;;;15.57;;
30303;SDS011;17112;48.636;10.152;2024-01-10T08:09:51;40.95;;;19.00;;
30303;SDS011;17112;48.636;10.152;2024-01-10T08:12:16;36.80;;;17.75;;
30303;SDS011;17112;48.636;10.152;2024-01-10T08:14:42;40.83;;;19.88;;
30303;SDS011;17112;48.636;10.152;2024-01-10T08:17:11;42.30;;;17.88;;
30303;SDS011;17112;48.636;10.152;2024-01-10T08:19:36;36.80;;;16.13;;
30303;SDS011;17112;48.636;10.152;2024-01-10T08:22:02;37.90;;;17.77;;
30303;SDS011;17112;48.636;10.152;2024-01-10T08:24:29;38.95;;;17.52;;
30303;SDS011;17112;48.636;10.152;2024-01-10T08:26:55;33.10;;;17.02;;
30303;SDS011;17112;48.636;10.152;2024-01-10T08:29:20;37.72;;;18.65;;
30303;SDS011;17112;48.636;10.152;2024-01-10T08:31:47;35.38;;;17.00;;
30303;SDS011;17112;48.636;10.152;2024-01-10T08:34:13;40.65;;;17.73;;
30303;SDS011;17112;48.636;10.152;2024-01-10T08:36:39;34.22;;;16.85;;
30303;SDS011;17112;48.636;10.152;2024-01-10T08:39:05;35.03;;;16.85;;
30303;SDS011;17112;48.636;10.152;2024-01-10T08:41:31;38.92;;;17.73;;
30303;SDS011;17112;48.636;10.152;2024-01-10T08:43:58;40.60;;;17.05;;
30303;SDS011;17112;48.636;10.152;2024-01-10T08:46:24;37.75;;;17.55;;
30303;SDS011;17112;48.636;10.152;2024-01-10T08:48:51;35.50;;;17.23;;
30303;SDS011;17112;48.636;10.152;2024-01-10T08:51:16;34.85;;;17.77;;
30303;SDS011;17112;48.636;10.152;2024-01-10T08:53:45;38.22;;;17.65;;
30303;SDS011;17112;48.636;10.152;2024-01-10T08:56:10;33.75;;;16.90;;
30303;SDS011;17112;48.636;10.152;2024-01-10T08:58:36;39.90;;;18.65;;
30303;SDS011;17112;48.636;10.152;2024-01-10T09:01:03;38.60;;;18.05;;
30303;SDS011;17112;48.636;10.152;2024-01-10T09:03:33;38.88;;;19.05;;
30303;SDS011;17112;48.636;10.152;2024-01-10T09:05:59;40.33;;;17.92;;
30303;SDS011;17112;48.636;10.152;2024-01-10T09:08:24;45.85;;;18.67;;
30303;SDS011;17112;48.636;10.152;2024-01-10T09:10:50;38.15;;;20.02;;
30303;SDS011;17112;48.636;10.152;2024-01-10T09:13:16;43.95;;;20.42;;
30303;SDS011;17112;48.636;10.152;2024-01-10T09:15:42;47.75;;;18.90;;
30303;SDS011;17112;48.636;10.152;2024-01-10T09:18:08;48.75;;;22.63;;
30303;SDS011;17112;48.636;10.152;2024-01-10T09:20:34;37.28;;;19.30;;
30303;SDS011;17112;48.636;10.152;2024-01-10T09:23:00;44.90;;;21.00;;
30303;SDS011;17112;48.636;10.152;2024-01-10T09:25:26;44.47;;;20.17;;
30303;SDS011;17112;48.636;10.152;2024-01-10T09:27:52;52.50;;;26.25;;
30303;SDS011;17112;48.636;10.152;2024-01-10T09:30:17;47.47;;;22.63;;
30303;SDS011;17112;48.636;10.152;2024-01-10T09:32:43;36.70;;;20.08;;
30303;SDS011;17112;48.636;10.152;2024-01-10T09:35:10;40.92;;;20.42;;
30303;SDS011;17112;48.636;10.152;2024-01-10T09:37:35;49.17;;;20.90;;
30303;SDS011;17112;48.636;10.152;2024-01-10T09:40:01;42.90;;;20.77;;
30303;SDS011;17112;48.636;10.152;2024-01-10T09:42:28;41.60;;;20.55;;
30303;SDS011;17112;48.636;10.152;2024-01-10T09:44:56;43.83;;;21.52;;
30303;SDS011;17112;48.636;10.152;2024-01-10T09:47:23;42.38;;;19.83;;
30303;SDS011;17112;48.636;10.152;2024-01-10T09:49:49;40.88;;;19.73;;
30303;SDS011;17112;48.636;10.152;2024-01-10T09:52:25;37.17;;;19.10;;
30303;SDS011;17112;48.636;10.152;2024-01-10T09:54:55;43.25;;;20.70;;
30303;SDS011;17112;48.636;10.152;2024-01-10T09:57:25;40.08;;;20.55;;
30303;SDS011;17112;48.636;10.152;2024-01-10T09:59:51;40.92;;;20.35;;
30303;SDS011;17112;48.636;10.152;2024-01-10T10:02:18;39.80;;;18.83;;
30303;SDS011;17112;48.636;10.152;2024-01-10T10:07:27;41.45;;;19.75;;
30303;SDS011;17112;48.636;10.152;2024-01-10T10:09:53;46.83;;;21.38;;
30303;SDS011;17112;48.636;10.152;2024-01-10T10:12:21;39.67;;;20.10;;
30303;SDS011;17112;48.636;10.152;2024-01-10T10:14:47;39.25;;;19.02;;
30303;SDS011;17112;48.636;10.152;2024-01-10T10:17:14;39.70;;;20.67;;
30303;SDS011;17112;48.636;10.152;2024-01-10T10:19:40;42.47;;;20.48;;
30303;SDS011;17112;48.636;10.152;2024-01-10T10:22:09;198.52;;;70.72;;
30303;SDS011;17112;48.636;10.152;2024-01-10T10:24:35;68.97;;;32.05;;
30303;SDS011;17112;48.636;10.152;2024-01-10T10:27:01;56.22;;;25.10;;
30303;SDS011;17112;48.636;10.152;2024-01-10T10:29:35;75.28;;;34.83;;
30303;SDS011;17112;48.636;10.152;2024-01-10T10:32:02;86.18;;;40.25;;
30303;SDS011;17112;48.636;10.152;2024-01-10T10:34:30;52.67;;;25.70;;
30303;SDS011;17112;48.636;10.152;2024-01-10T10:36:57;44.95;;;21.35;;
30303;SDS011;17112;48.636;10.152;2024-01-10T10:39:23;41.75;;;21.33;;
30303;SDS011;17112;48.636;10.152;2024-01-10T10:41:50;42.33;;;21.30;;
30303;SDS011;17112;48.636;10.152;2024-01-10T10:44:18;39.53;;;20.17;;
30303;SDS011;17112;48.636;10.152;2024-01-10T10:47:01;38.83;;;19.02;;
30303;SDS011;17112;48.636;10.152;2024-01-10T10:49:31;42.33;;;19.17;;
30303;SDS011;17112;48.636;10.152;2024-01-10T10:51:59;45.95;;;21.20;;
30303;SDS011;17112;48.636;10.152;2024-01-10T10:54:27;45.70;;;19.27;;
30303;SDS011;17112;48.636;10.152;2024-01-10T10:56:55;42.83;;;20.27;;
30303;SDS011;17112;48.636;10.152;2024-01-10T10:59:25;39.92;;;21.08;;
30303;SDS011;17112;48.636;10.152;2024-01-10T11:01:53;43.75;;;20.90;;
30303;SDS011;17112;48.636;10.152;2024-01-10T11:04:19;45.45;;;19.90;;
30303;SDS011;17112;48.636;10.152;2024-01-10T11:06:46;40.17;;;20.48;;
30303;SDS011;17112;48.636;10.152;2024-01-10T11:09:12;41.15;;;20.67;;
30303;SDS011;17112;48.636;10.152;2024-01-10T11:15:04;40.70;;;22.98;;
30303;SDS011;17112;48.636;10.152;2024-01-10T11:26:16;46.25;;;21.27;;
30303;SDS011;17112;48.636;10.152;2024-01-10T11:28:44;40.08;;;21.77;;
30303;SDS011;17112;48.636;10.152;2024-01-10T11:31:10;42.17;;;21.58;;
30303;SDS011;17112;48.636;10.152;2024-01-10T11:33:40;42.58;;;21.45;;
30303;SDS011;17112;48.636;10.152;2024-01-10T11:36:09;40.80;;;21.20;;
30303;SDS011;17112;48.636;10.152;2024-01-10T11:38:58;81.13;;;32.47;;
30303;SDS011;17112;48.636;10.152;2024-01-10T11:41:29;44.83;;;23.13;;
30303;SDS011;17112;48.636;10.152;2024-01-10T11:46:45;46.15;;;22.20;;
30303;SDS011;17112;48.636;10.152;2024-01-10T11:49:15;41.72;;;21.35;;
30303;SDS011;17112;48.636;10.152;2024-01-10T11:51:43;45.67;;;23.48;;
30303;SDS011;17112;48.636;10.152;2024-01-10T11:54:09;42.58;;;21.73;;
30303;SDS011;17112;48.636;10.152;2024-01-10T11:56:39;42.05;;;21.83;;
30303;SDS011;17112;48.636;10.152;2024-01-10T11:59:07;44.10;;;23.02;;
30303;SDS011;17112;48.636;10.152;2024-01-10T12:01:34;43.20;;;21.70;;
30303;SDS011;17112;48.636;10.152;2024-01-10T12:04:02;42.40;;;23.00;;
30303;SDS011;17112;48.636;10.152;2024-01-10T12:06:29;42.25;;;22.75;;
30303;SDS011;17112;48.636;10.152;2024-01-10T12:08:56;43.42;;;23.08;;
30303;SDS011;17112;48.636;10.152;2024-01-10T12:11:22;41.95;;;22.90;;
30303;SDS011;17112;48.636;10.152;2024-01-10T12:13:48;51.35;;;26.40;;
30303;SDS011;17112;48.636;10.152;2024-01-10T12:16:14;51.22;;;26.67;;
30303;SDS011;17112;48.636;10.152;2024-01-10T12:18:42;44.53;;;23.67;;
30303;SDS011;17112;48.636;10.152;2024-01-10T12:21:08;43.35;;;22.77;;
30303;SDS011;17112;48.636;10.152;2024-01-10T12:23:35;50.13;;;24.65;;
30303;SDS011;17112;48.636;10.152;2024-01-10T12:26:01;45.55;;;23.40;;
30303;SDS011;17112;48.636;10.152;2024-01-10T12:28:29;44.92;;;22.27;;
30303;SDS011;17112;48.636;10.152;2024-01-10T12:30:55;43.50;;;22.50;;
30303;SDS011;17112;48.636;10.152;2024-01-10T12:33:22;48.28;;;23.25;;
30303;SDS011;17112;48.636;10.152;2024-01-10T12:36:07;42.47;;;22.17;;
30303;SDS011;17112;48.636;10.152;2024-01-10T12:38:34;42.58;;;22.00;;
30303;SDS011;17112;48.636;10.152;2024-01-10T12:41:00;42.00;;;23.17;;
30303;SDS011;17112;48.636;10.152;2024-01-10T12:43:27;41.35;;;22.00;;
30303;SDS011;17112;48.636;10.152;2024-01-10T12:46:02;42.67;;;22.52;;
30303;SDS011;17112;48.636;10.152;2024-01-10T12:48:41;43.30;;;24.23;;
30303;SDS011;17112;48.636;10.152;2024-01-10T12:51:07;44.03;;;23.83;;
30303;SDS011;17112;48.636;10.152;2024-01-10T12:53:38;44.47;;;22.63;;
30303;SDS011;17112;48.636;10.152;2024-01-10T12:56:05;42.55;;;22.92;;
30303;SDS011;17112;48.636;10.152;2024-01-10T12:58:32;43.47;;;22.25;;
30303;SDS011;17112;48.636;10.152;2024-01-10T13:01:00;39.55;;;21.60;;
30303;SDS011;17112;48.636;10.152;2024-01-10T13:03:26;42.00;;;21.85;;
30303;SDS011;17112;48.636;10.152;2024-01-10T13:05:51;45.08;;;24.00;;
30303;SDS011;17112;48.636;10.152;2024-01-10T13:08:17;41.65;;;22.02;;
30303;SDS011;17112;48.636;10.152;2024-01-10T13:10:44;43.65;;;22.73;;
30303;SDS011;17112;48.636;10.152;2024-01-10T13:13:11;50.63;;;26.25;;
30303;SDS011;17112;48.636;10.152;2024-01-10T13:15:37;49.40;;;25.17;;
30303;SDS011;17112;48.636;10.152;2024-01-10T13:18:03;45.35;;;24.23;;
30303;SDS011;17112;48.636;10.152;2024-01-10T13:20:29;51.83;;;25.88;;
30303;SDS011;17112;48.636;10.152;2024-01-10T13:22:54;47.05;;;25.23;;
30303;SDS011;17112;48.636;10.152;2024-01-10T13:25:20;45.65;;;24.10;;
30303;SDS011;17112;48.636;10.152;2024-01-10T13:27:49;38.88;;;22.30;;
30303;SDS011;17112;48.636;10.152;2024-01-10T13:30:16;44.30;;;22.83;;
30303;SDS011;17112;48.636;10.152;2024-01-10T13:32:43;48.15;;;23.70;;
30303;SDS011;17112;48.636;10.152;2024-01-10T13:35:09;48.30;;;23.05;;
30303;SDS011;17112;48.636;10.152;2024-01-10T13:37:34;44.60;;;23.67;;
30303;SDS011;17112;48.636;10.152;2024-01-10T13:40:00;44.22;;;23.00;;
30303;SDS011;17112;48.636;10.152;2024-01-10T13:42:33;43.00;;;23.60;;
30303;SDS011;17112;48.636;10.152;2024-01-10T13:44:58;44.80;;;23.27;;
30303;SDS011;17112;48.636;10.152;2024-01-10T13:47:25;42.25;;;22.60;;
30303;SDS011;17112;48.636;10.152;2024-01-10T13:49:51;44.30;;;22.60;;
30303;SDS011;17112;48.636;10.152;2024-01-10T13:52:17;48.97;;;25.38;;
30303;SDS011;17112;48.636;10.152;2024-01-10T13:54:43;45.90;;;23.80;;
30303;SDS011;17112;48.636;10.152;2024-01-10T13:57:09;47.22;;;23.17;;
30303;SDS011;17112;48.636;10.152;2024-01-10T13:59:34;48.80;;;24.67;;
30303;SDS011;17112;48.636;10.152;2024-01-10T14:02:00;45.92;;;24.10;;
30303;SDS011;17112;48.636;10.152;2024-01-10T14:04:25;46.60;;;24.08;;
30303;SDS011;17112;48.636;10.152;2024-01-10T14:06:51;49.45;;;25.38;;
30303;SDS011;17112;48.636;10.152;2024-01-10T14:09:17;51.95;;;25.33;;
30303;SDS011;17112;48.636;10.152;2024-01-10T14:11:43;47.50;;;24.95;;
30303;SDS011;17112;48.636;10.152;2024-01-10T14:14:13;53.00;;;25.95;;
30303;SDS011;17112;48.636;10.152;2024-01-10T14:16:39;55.78;;;26.35;;
30303;SDS011;17112;48.636;10.152;2024-01-10T14:19:06;59.33;;;31.85;;
30303;SDS011;17112;48.636;10.152;2024-01-10T14:21:32;55.78;;;27.88;;
30303;SDS011;17112;48.636;10.152;2024-01-10T14:23:57;58.05;;;30.17;;